サル島 の空港の天気 - METARとTAF

アミルカル・カブラル国際空港 ( GVAC / SID ) - カーボベルデ サル島
飛行場実況気象(Metar)
観測時間11/27 08:00 CVT (11/27 09:00 UTC)
風向・風速北東 6m/s
視程10km以上
天気現象
なし
気温23℃
湿度83%
気圧1015hPa
METARGVAC 270900Z 04012KT CAVOK 23/20 Q1015 NOSIG
過去の天気等 Google飛行場航空写真 Wunderground天気予報

過去48時間のMETAR

飛行場予報(TAF)
発表時間: 11/27 04:00 CVT (11/27 05:00 UTC)
予報対象時間: 27日5時 CVT ~ 28日11時 CVT
風向・風速北東 9m/s
視程10km以上
なし
TAF GVAC 270500Z 2706/2812 05018KT CAVOK